Terminal Aerodrome Forecast
Issued by NWS Pocatello, ID

Home | Current Version | Previous Version | Text Only | Print | Product List | Glossary On
Versions: 1 2 3 4 5 6 7 8 9 10 11 12 13 14
000
FTUS45 KPIH 301700
TAFBYI
TAF
KBYI 301720Z 3018/3118 VRB05KT P6SM SCT200
     FM301900 VRB05KT P6SM VCTS SCT080CB BKN120
     FM310400 VRB05KT P6SM FEW080 SCT150=

USA.gov is the U.S. government's official web portal to all federal, state and local government web resources and services.